This is the latest recevied weather packets stored in our database for station/object SQ2JAD-10. If no packets are shown the sender has not sent any weather packets the latest 10 day(s).
| Time | Temp. | Humidity | Pressure | Rain* | Wind** | Luminosity | Snow |
|---|---|---|---|---|---|---|---|
| 1777844943 | 15.56° C | 32% | 1006 hPa | - | - | - | - |
| 1777841341 | 16.67° C | 31% | 1006 hPa | - | - | - | - |
| 1777837754 | 17.22° C | 30% | 1006.1 hPa | - | - | - | - |
| 1777810748 | 24.44° C | 29% | 1007.9 hPa | - | - | - | - |
| 1777807145 | 23.89° C | 30% | 1008.5 hPa | - | - | - | - |
| 1777805344 | 23.89° C | 31% | 1008.8 hPa | - | - | - | - |
| 1777736952 | 23.33° C | 30% | 1013.2 hPa | - | - | - | - |
| 1777708147 | 20.56° C | 37% | 1018.5 hPa | - | - | - | - |
| 1777700941 | 23.33° C | 34% | 1018.8 hPa | - | - | - | - |
| 1777699140 | 7.78° C | 42% | 1018.8 hPa | - | - | - | - |
| 1777697338 | 6.11° C | 43% | 1018.7 hPa | - | - | - | - |
| 1777681142 | 5.56° C | 41% | 1019.2 hPa | - | - | - | - |
| 1777675738 | 6.67° C | 40% | 1019.5 hPa | - | - | - | - |
| 1777673937 | 7.22° C | 40% | 1019.4 hPa | - | - | - | - |
| 1777672135 | 8.33° C | 39% | 1019.5 hPa | - | - | - | - |
| 1777626132 | 15° C | 38% | 1021.9 hPa | - | - | - | - |
| 1777620728 | 24.44° C | 33% | 1021.9 hPa | - | - | - | - |
| 1777586533 | 6.67° C | 40% | 1021.6 hPa | - | - | - | - |
| 1777545116 | 12.78° C | 35% | 1024.6 hPa | - | - | - | - |
| 1777523515 | -1.67° C | 41% | 1026 hPa | - | - | - | - |
| 1777519927 | -4.44° C | 41% | 1026.1 hPa | - | - | - | - |
| 1777518126 | -3.89° C | 41% | 1026.2 hPa | - | - | - | - |
| 1777516325 | -3.33° C | 41% | 1026.1 hPa | - | - | - | - |
| 1777505517 | -1.67° C | 38% | 1025.8 hPa | - | - | - | - |
| 1777467719 | 8.33° C | 33% | 1024 hPa | - | - | - | - |
* Rain since midnight (hover to see other rain measurements)
** Current wind speed in m/s (hover to see current wind gust speed)